Hartford, Connecticut
Traffic Map
Current Weather Conditions
Hartford, Connecticut
Few Clouds
Few Clouds
74°
Feels Like: 74°
Wind Chill: 74° Ceiling: Unl
Heat Index: 74° Visibility: 10mi
Dew Point: 70° Wind: 6mph
Humidity: 87% Direction: 180° (S)
Pressure: 29.82in Gusts: 0mph
Raw Report DataKHFD 150121Z 18005KT 10SM FEW070 23/21 A2982 RMK AO2 LTG DSNT N T02330211
Traffic Incident Summary
Active as of:
Severity:
Category:
InformationThere was an issue retrieving the traffic information for this location. Please try a different location or try again shortly.
Advertisements